Oxon Hill, MD (20745)

10:36 PM EST on February 09, 2016 (GMT -0500)
Rosemont Park | | Change Station
CLOSE
Current Station
Personal Weather Station
Location: Alexandria, VA
Elevation: 26 ft
Nearby Weather Stations

Elev 26 ft 38.81 °N, 77.06 °W | Updated 9 minutes ago

Overcast
Overcast
33.5 °F
Feels Like 34 °F
N
2.0
Wind Variable Wind from NW
Gusts 10.0 mph

Today
High -- | Low -- °F
--% Chance of Precip.
Yesterday
High -- | Low -- °F
Precip. -- in
Pressure 29.70 in
Visibility 10.0 miles
Clouds Mostly Cloudy 10000 ft
Mostly Cloudy 12000 ft
Windchill 34 °F
Dew Point 22 °F
Humidity 62%
Rainfall 0.22 in
Snow Depth Not available.
7:06 AM 5:38 PM
Waxing Crescent, 3% visible
METAR KDCA 100252Z 30010KT 10SM BKN100 BKN120 01/M07 A2970 RMK AO2 SLP056 T00061072 53016
Pressure 29.70 in
Visibility 10.0 miles
Clouds Mostly Cloudy 10000 ft
Mostly Cloudy 12000 ft
Windchill 34 °F
Dew Point 22 °F
Humidity 62%
Rainfall 0.22 in
Snow Depth Not available.
7:06 AM 5:38 PM
Waxing Crescent, 3% visible
METAR KDCA 100252Z 30010KT 10SM BKN100 BKN120 01/M07 A2970 RMK AO2 SLP056 T00061072 53016
Winter Storm Nacio, the third winter storm in five days to affect the Northeast, is bringing pockets of locally heavy snow to parts of the Ohio Valley, Appalachians and mid-Atlantic states Tuesday. Winter storm warnings are posted for parts of southern Pennsylvania, southern Ohio and the higher peaks of the Appalachians. Winter weather advisories, generally for lighter snow accumulations, stretch from northeast Alabama and far north Georgia to southern Connecticut and Long Island.

10-Day Weather Forecast

Almanac

Astronomy

Feb. 09, 2016 Rise Set
Actual Time
Civil Twilight
Nautical Twilight
Astronomical Twilight
Moon
Length of Visible Light
Length of Day
Tomorrow will be .
, % of the Moon is Illuminated

Today's Extremes

State Highs State Lows

Community

WunderPhotos

Upload Photos

1,891,792 photos uploaded!

WunderBlog® & News

Nearby

Air Quality

  Air Quality AQ Index Pollutant
Not available.

Snow Depth

Station Depth Elevation

Earthquake Activity

City Distance Mag. Time & Date
Minimum magnitude displayed is 2.5.

Coastal Water Temperatures

Place Temperature

Stations

Nearby Weather Stations

Station Location Temp. Windchill Dew Point Humidity Wind Precip. Elev Updated Type
                   

Watches & Warnings

There are currently no watches in effect.